sensor_id;sensor_type;location;lat;lon;timestamp;pressure;altitude;pressure_sealevel;temperature;humidity
29941;BME280;16801;53.562;10.038;2022-12-20T00:02:38;101377.94;;;7.98;86.30
29941;BME280;16801;53.562;10.038;2022-12-20T00:06:00;101371.16;;;8.05;85.78
29941;BME280;16801;53.562;10.038;2022-12-20T00:09:21;101358.69;;;8.04;85.21
29941;BME280;16801;53.562;10.038;2022-12-20T00:12:43;101356.34;;;7.99;85.96
29941;BME280;16801;53.562;10.038;2022-12-20T00:16:06;101357.09;;;8.01;86.36
29941;BME280;16801;53.562;10.038;2022-12-20T00:19:27;101331.31;;;7.99;86.23
29941;BME280;16801;53.562;10.038;2022-12-20T00:22:49;101342.03;;;8.12;85.35
29941;BME280;16801;53.562;10.038;2022-12-20T00:26:12;101335.59;;;8.01;85.78
29941;BME280;16801;53.562;10.038;2022-12-20T00:29:34;101333.25;;;7.97;86.62
29941;BME280;16801;53.562;10.038;2022-12-20T00:32:54;101346.03;;;8.06;85.52
29941;BME280;16801;53.562;10.038;2022-12-20T00:36:16;101343.97;;;7.97;86.84
29941;BME280;16801;53.562;10.038;2022-12-20T00:39:40;101354.72;;;7.97;86.09
29941;BME280;16801;53.562;10.038;2022-12-20T00:43:01;101348.50;;;7.96;86.90
29941;BME280;16801;53.562;10.038;2022-12-20T00:46:24;101340.66;;;7.93;87.44
29941;BME280;16801;53.562;10.038;2022-12-20T00:49:45;101341.53;;;8.06;86.34
29941;BME280;16801;53.562;10.038;2022-12-20T00:53:06;101342.28;;;7.96;86.87
29941;BME280;16801;53.562;10.038;2022-12-20T00:56:30;101337.03;;;7.94;87.11
29941;BME280;16801;53.562;10.038;2022-12-20T00:59:51;101339.72;;;7.94;87.66
29941;BME280;16801;53.562;10.038;2022-12-20T01:03:12;101330.47;;;7.98;86.64
29941;BME280;16801;53.562;10.038;2022-12-20T01:06:33;101324.34;;;7.96;87.36
29941;BME280;16801;53.562;10.038;2022-12-20T01:09:54;101325.84;;;8.00;87.64
29941;BME280;16801;53.562;10.038;2022-12-20T01:13:16;101331.75;;;7.93;87.68
29941;BME280;16801;53.562;10.038;2022-12-20T01:16:40;101318.00;;;7.97;87.06
29941;BME280;16801;53.562;10.038;2022-12-20T01:20:01;101327.56;;;8.01;87.35
29941;BME280;16801;53.562;10.038;2022-12-20T01:23:22;101337.44;;;8.01;87.65
29941;BME280;16801;53.562;10.038;2022-12-20T01:26:43;101325.63;;;8.03;87.14
29941;BME280;16801;53.562;10.038;2022-12-20T01:30:08;101341.19;;;8.11;86.56
29941;BME280;16801;53.562;10.038;2022-12-20T01:33:30;101336.16;;;8.06;87.31
29941;BME280;16801;53.562;10.038;2022-12-20T01:36:50;101332.91;;;8.01;88.22
29941;BME280;16801;53.562;10.038;2022-12-20T01:40:12;101331.28;;;8.12;87.68
29941;BME280;16801;53.562;10.038;2022-12-20T01:43:48;101329.34;;;8.14;87.81
29941;BME280;16801;53.562;10.038;2022-12-20T01:47:12;101330.47;;;8.11;86.92
29941;BME280;16801;53.562;10.038;2022-12-20T01:50:33;101314.56;;;8.08;87.68
29941;BME280;16801;53.562;10.038;2022-12-20T01:53:56;101311.44;;;8.27;86.71
29941;BME280;16801;53.562;10.038;2022-12-20T01:57:23;101302.94;;;8.33;87.68
29941;BME280;16801;53.562;10.038;2022-12-20T02:00:45;101310.91;;;8.34;87.43
29941;BME280;16801;53.562;10.038;2022-12-20T02:04:07;101316.38;;;8.33;87.66
29941;BME280;16801;53.562;10.038;2022-12-20T02:07:30;101301.22;;;8.32;88.07
29941;BME280;16801;53.562;10.038;2022-12-20T02:11:04;101293.56;;;8.51;87.49
29941;BME280;16801;53.562;10.038;2022-12-20T02:14:38;101305.66;;;8.56;87.58
29941;BME280;16801;53.562;10.038;2022-12-20T02:18:12;101301.16;;;8.57;87.28
29941;BME280;16801;53.562;10.038;2022-12-20T02:21:38;101302.75;;;8.59;87.45
29941;BME280;16801;53.562;10.038;2022-12-20T02:25:15;101310.00;;;8.70;88.09
29941;BME280;16801;53.562;10.038;2022-12-20T02:29:00;101296.63;;;8.81;87.38
29941;BME280;16801;53.562;10.038;2022-12-20T02:32:30;101296.75;;;8.79;87.69
29941;BME280;16801;53.562;10.038;2022-12-20T02:35:53;101288.69;;;8.79;87.20
29941;BME280;16801;53.562;10.038;2022-12-20T02:39:14;101287.38;;;8.85;87.02
29941;BME280;16801;53.562;10.038;2022-12-20T02:42:35;101284.06;;;8.81;87.45
29941;BME280;16801;53.562;10.038;2022-12-20T02:45:57;101275.53;;;8.88;87.42
29941;BME280;16801;53.562;10.038;2022-12-20T02:49:21;101277.56;;;9.08;87.14
29941;BME280;16801;53.562;10.038;2022-12-20T02:52:45;101273.78;;;9.10;87.43
29941;BME280;16801;53.562;10.038;2022-12-20T02:56:11;101272.78;;;9.00;87.46
29941;BME280;16801;53.562;10.038;2022-12-20T02:59:38;101270.31;;;8.97;87.63
29941;BME280;16801;53.562;10.038;2022-12-20T03:03:01;101264.28;;;9.17;87.50
29941;BME280;16801;53.562;10.038;2022-12-20T03:06:56;101264.16;;;9.19;87.86
29941;BME280;16801;53.562;10.038;2022-12-20T03:10:17;101276.81;;;9.40;86.33
29941;BME280;16801;53.562;10.038;2022-12-20T03:13:39;101260.81;;;9.50;86.65
29941;BME280;16801;53.562;10.038;2022-12-20T03:17:02;101255.28;;;9.40;86.17
29941;BME280;16801;53.562;10.038;2022-12-20T03:20:23;101271.06;;;9.34;87.01
29941;BME280;16801;53.562;10.038;2022-12-20T03:23:46;101277.56;;;9.42;87.10
29941;BME280;16801;53.562;10.038;2022-12-20T03:27:07;101274.88;;;9.42;86.48
29941;BME280;16801;53.562;10.038;2022-12-20T03:30:28;101276.31;;;9.35;86.89
29941;BME280;16801;53.562;10.038;2022-12-20T03:33:49;101263.69;;;9.25;87.53
29941;BME280;16801;53.562;10.038;2022-12-20T03:37:10;101263.69;;;9.25;87.41
29941;BME280;16801;53.562;10.038;2022-12-20T03:40:33;101261.25;;;9.33;87.47
29941;BME280;16801;53.562;10.038;2022-12-20T03:43:54;101282.28;;;9.39;86.62
29941;BME280;16801;53.562;10.038;2022-12-20T03:47:16;101279.50;;;9.40;86.60
29941;BME280;16801;53.562;10.038;2022-12-20T03:50:39;101281.06;;;9.43;86.38
29941;BME280;16801;53.562;10.038;2022-12-20T03:54:01;101264.09;;;9.42;86.65
29941;BME280;16801;53.562;10.038;2022-12-20T03:57:42;101247.81;;;9.44;86.33
29941;BME280;16801;53.562;10.038;2022-12-20T04:01:26;101256.88;;;9.54;86.01
29941;BME280;16801;53.562;10.038;2022-12-20T04:04:48;101252.88;;;9.59;85.71
29941;BME280;16801;53.562;10.038;2022-12-20T04:08:08;101259.34;;;9.57;85.70
29941;BME280;16801;53.562;10.038;2022-12-20T04:11:29;101250.44;;;9.68;85.17
29941;BME280;16801;53.562;10.038;2022-12-20T04:15:00;101254.34;;;9.75;84.63
29941;BME280;16801;53.562;10.038;2022-12-20T04:18:23;101258.50;;;9.68;85.08
29941;BME280;16801;53.562;10.038;2022-12-20T04:21:44;101255.69;;;9.69;84.88
29941;BME280;16801;53.562;10.038;2022-12-20T04:25:07;101238.66;;;9.57;85.20
29941;BME280;16801;53.562;10.038;2022-12-20T04:28:32;101243.56;;;9.75;84.57
29941;BME280;16801;53.562;10.038;2022-12-20T04:31:55;101243.84;;;9.72;84.92
29941;BME280;16801;53.562;10.038;2022-12-20T04:35:16;101241.72;;;9.53;85.34
29941;BME280;16801;53.562;10.038;2022-12-20T04:38:39;101245.88;;;9.46;85.87
29941;BME280;16801;53.562;10.038;2022-12-20T04:42:00;101244.53;;;9.40;86.37
29941;BME280;16801;53.562;10.038;2022-12-20T04:45:21;101232.91;;;9.40;86.25
29941;BME280;16801;53.562;10.038;2022-12-20T04:48:44;101235.72;;;9.38;86.08
29941;BME280;16801;53.562;10.038;2022-12-20T04:52:05;101234.59;;;9.30;86.81
29941;BME280;16801;53.562;10.038;2022-12-20T04:55:41;101234.59;;;9.30;87.23
29941;BME280;16801;53.562;10.038;2022-12-20T04:59:02;101238.41;;;9.49;85.88
29941;BME280;16801;53.562;10.038;2022-12-20T05:02:23;101239.25;;;9.39;87.17
29941;BME280;16801;53.562;10.038;2022-12-20T05:05:51;101242.56;;;9.53;87.04
29941;BME280;16801;53.562;10.038;2022-12-20T05:09:13;101239.63;;;9.34;88.96
29941;BME280;16801;53.562;10.038;2022-12-20T05:12:34;101239.63;;;9.34;89.00
29941;BME280;16801;53.562;10.038;2022-12-20T05:15:57;101236.56;;;9.50;88.80
29941;BME280;16801;53.562;10.038;2022-12-20T05:19:22;101238.50;;;9.37;89.64
29941;BME280;16801;53.562;10.038;2022-12-20T05:22:45;101234.50;;;9.42;89.78
29941;BME280;16801;53.562;10.038;2022-12-20T05:26:28;101229.59;;;9.36;90.05
29941;BME280;16801;53.562;10.038;2022-12-20T05:29:50;101226.28;;;9.33;90.42
29941;BME280;16801;53.562;10.038;2022-12-20T05:33:11;101225.88;;;9.26;90.79
29941;BME280;16801;53.562;10.038;2022-12-20T05:36:34;101228.97;;;9.22;91.16
29941;BME280;16801;53.562;10.038;2022-12-20T05:39:59;101230.53;;;9.24;91.08
29941;BME280;16801;53.562;10.038;2022-12-20T05:43:20;101218.41;;;9.08;92.76
29941;BME280;16801;53.562;10.038;2022-12-20T05:46:41;101216.31;;;9.00;93.14
29941;BME280;16801;53.562;10.038;2022-12-20T05:50:09;101214.56;;;8.99;93.21
29941;BME280;16801;53.562;10.038;2022-12-20T05:53:49;101218.00;;;9.01;92.48
29941;BME280;16801;53.562;10.038;2022-12-20T05:57:16;101219.94;;;8.99;92.86
29941;BME280;16801;53.562;10.038;2022-12-20T06:00:37;101214.22;;;9.04;92.60
29941;BME280;16801;53.562;10.038;2022-12-20T06:03:58;101216.09;;;9.03;92.72
29941;BME280;16801;53.562;10.038;2022-12-20T06:07:19;101222.56;;;9.01;92.92
29941;BME280;16801;53.562;10.038;2022-12-20T06:10:44;101223.03;;;9.06;93.34
29941;BME280;16801;53.562;10.038;2022-12-20T06:14:08;101221.91;;;8.97;93.48
29941;BME280;16801;53.562;10.038;2022-12-20T06:17:33;101236.22;;;8.98;93.80
29941;BME280;16801;53.562;10.038;2022-12-20T06:20:54;101252.22;;;8.99;94.35
29941;BME280;16801;53.562;10.038;2022-12-20T06:24:16;101248.56;;;9.00;94.80
29941;BME280;16801;53.562;10.038;2022-12-20T06:27:38;101242.84;;;9.05;95.86
29941;BME280;16801;53.562;10.038;2022-12-20T06:31:05;101242.50;;;9.09;95.80
29941;BME280;16801;53.562;10.038;2022-12-20T06:34:39;101244.72;;;9.15;96.83
29941;BME280;16801;53.562;10.038;2022-12-20T06:38:01;101244.38;;;9.31;96.37
29941;BME280;16801;53.562;10.038;2022-12-20T06:41:25;101249.78;;;9.42;96.34
29941;BME280;16801;53.562;10.038;2022-12-20T06:44:47;101231.78;;;9.31;96.15
29941;BME280;16801;53.562;10.038;2022-12-20T06:48:10;101222.38;;;9.26;96.75
29941;BME280;16801;53.562;10.038;2022-12-20T06:51:31;101218.22;;;9.22;96.73
29941;BME280;16801;53.562;10.038;2022-12-20T06:54:53;101222.84;;;9.20;96.78
29941;BME280;16801;53.562;10.038;2022-12-20T06:58:15;101231.66;;;9.22;96.42
29941;BME280;16801;53.562;10.038;2022-12-20T07:01:38;101227.50;;;9.18;96.41
29941;BME280;16801;53.562;10.038;2022-12-20T07:05:00;101238.59;;;9.13;96.83
29941;BME280;16801;53.562;10.038;2022-12-20T07:08:22;101239.22;;;9.17;97.40
29941;BME280;16801;53.562;10.038;2022-12-20T07:11:43;101235.16;;;9.11;98.06
29941;BME280;16801;53.562;10.038;2022-12-20T07:15:05;101241.38;;;9.12;98.30
29941;BME280;16801;53.562;10.038;2022-12-20T07:18:26;101240.91;;;9.07;98.69
29941;BME280;16801;53.562;10.038;2022-12-20T07:21:48;101256.03;;;9.08;98.58
29941;BME280;16801;53.562;10.038;2022-12-20T07:25:09;101254.75;;;9.13;99.19
29941;BME280;16801;53.562;10.038;2022-12-20T07:28:30;101248.72;;;9.10;99.27
29941;BME280;16801;53.562;10.038;2022-12-20T07:31:51;101240.56;;;9.11;98.68
29941;BME280;16801;53.562;10.038;2022-12-20T07:35:13;101232.22;;;9.14;98.76
29941;BME280;16801;53.562;10.038;2022-12-20T07:38:36;101226.97;;;9.13;99.08
29941;BME280;16801;53.562;10.038;2022-12-20T07:41:57;101217.09;;;9.13;98.35
29941;BME280;16801;53.562;10.038;2022-12-20T07:45:18;101218.78;;;9.14;99.16
29941;BME280;16801;53.562;10.038;2022-12-20T07:48:39;101215.59;;;9.09;98.57
29941;BME280;16801;53.562;10.038;2022-12-20T07:52:01;101233.78;;;9.06;98.75
29941;BME280;16801;53.562;10.038;2022-12-20T07:55:25;101244.16;;;8.99;99.24
29941;BME280;16801;53.562;10.038;2022-12-20T07:58:49;101227.41;;;8.96;99.51
29941;BME280;16801;53.562;10.038;2022-12-20T08:02:14;101218.47;;;8.95;99.40
29941;BME280;16801;53.562;10.038;2022-12-20T08:05:39;101205.16;;;8.94;99.20
29941;BME280;16801;53.562;10.038;2022-12-20T08:09:04;101201.72;;;8.92;99.41
29941;BME280;16801;53.562;10.038;2022-12-20T08:12:28;101198.09;;;8.93;99.29
29941;BME280;16801;53.562;10.038;2022-12-20T08:15:49;101213.84;;;8.97;98.89
29941;BME280;16801;53.562;10.038;2022-12-20T08:19:10;101209.31;;;8.98;98.09
29941;BME280;16801;53.562;10.038;2022-12-20T08:22:31;101210.06;;;9.00;98.36
29941;BME280;16801;53.562;10.038;2022-12-20T08:25:52;101204.81;;;8.98;97.54
29941;BME280;16801;53.562;10.038;2022-12-20T08:29:14;101187.81;;;8.98;97.60
29941;BME280;16801;53.562;10.038;2022-12-20T08:32:35;101192.44;;;8.96;97.52
29941;BME280;16801;53.562;10.038;2022-12-20T08:35:57;101189.91;;;8.94;97.03
29941;BME280;16801;53.562;10.038;2022-12-20T08:39:18;101190.50;;;8.98;97.24
29941;BME280;16801;53.562;10.038;2022-12-20T08:42:39;101190.28;;;9.01;97.00
29941;BME280;16801;53.562;10.038;2022-12-20T08:46:01;101191.25;;;9.00;96.40
29941;BME280;16801;53.562;10.038;2022-12-20T08:49:22;101188.72;;;9.09;95.88
29941;BME280;16801;53.562;10.038;2022-12-20T08:52:43;101184.81;;;9.13;95.51
29941;BME280;16801;53.562;10.038;2022-12-20T08:56:05;101184.72;;;9.26;94.37
29941;BME280;16801;53.562;10.038;2022-12-20T08:59:26;101182.25;;;9.23;94.09
29941;BME280;16801;53.562;10.038;2022-12-20T09:02:49;101174.03;;;9.24;94.04
29941;BME280;16801;53.562;10.038;2022-12-20T09:06:12;101164.78;;;9.39;93.45
29941;BME280;16801;53.562;10.038;2022-12-20T09:09:34;101166.13;;;9.45;92.70
29941;BME280;16801;53.562;10.038;2022-12-20T09:12:55;101184.81;;;9.57;91.77
29941;BME280;16801;53.562;10.038;2022-12-20T09:16:18;101171.28;;;9.59;92.10
29941;BME280;16801;53.562;10.038;2022-12-20T09:19:40;101166.75;;;9.59;91.11
29941;BME280;16801;53.562;10.038;2022-12-20T09:23:01;101172.00;;;9.61;91.55
29941;BME280;16801;53.562;10.038;2022-12-20T09:26:22;101168.94;;;9.65;91.21
29941;BME280;16801;53.562;10.038;2022-12-20T09:29:43;101175.78;;;9.70;91.03
29941;BME280;16801;53.562;10.038;2022-12-20T09:33:04;101189.34;;;9.68;90.77
29941;BME280;16801;53.562;10.038;2022-12-20T09:36:28;101174.34;;;9.65;90.46
29941;BME280;16801;53.562;10.038;2022-12-20T09:39:49;101182.63;;;9.62;90.98
29941;BME280;16801;53.562;10.038;2022-12-20T09:43:10;101174.19;;;9.67;90.88
29941;BME280;16801;53.562;10.038;2022-12-20T09:46:31;101186.66;;;9.68;90.73
29941;BME280;16801;53.562;10.038;2022-12-20T09:49:54;101192.69;;;9.72;90.61
29941;BME280;16801;53.562;10.038;2022-12-20T09:53:27;101173.56;;;9.75;90.40
29941;BME280;16801;53.562;10.038;2022-12-20T09:56:57;101185.56;;;9.82;90.63
29941;BME280;16801;53.562;10.038;2022-12-20T10:00:20;101180.91;;;9.84;90.54
29941;BME280;16801;53.562;10.038;2022-12-20T10:03:41;101169.66;;;9.90;90.42
29941;BME280;16801;53.562;10.038;2022-12-20T10:07:11;101176.03;;;9.89;91.38
29941;BME280;16801;53.562;10.038;2022-12-20T10:10:50;101172.47;;;9.88;91.99
29941;BME280;16801;53.562;10.038;2022-12-20T10:14:25;101150.31;;;9.85;92.64
29941;BME280;16801;53.562;10.038;2022-12-20T10:18:03;101142.84;;;9.88;92.45
29941;BME280;16801;53.562;10.038;2022-12-20T10:21:32;101135.13;;;9.95;92.24
29941;BME280;16801;53.562;10.038;2022-12-20T10:25:01;101145.28;;;10.13;92.13
29941;BME280;16801;53.562;10.038;2022-12-20T10:28:29;101134.13;;;10.07;90.69
29941;BME280;16801;53.562;10.038;2022-12-20T10:31:51;101120.31;;;10.11;91.09
29941;BME280;16801;53.562;10.038;2022-12-20T10:35:23;101113.69;;;10.15;90.41
29941;BME280;16801;53.562;10.038;2022-12-20T10:38:47;101109.53;;;10.11;90.30
29941;BME280;16801;53.562;10.038;2022-12-20T10:42:26;101101.03;;;10.16;89.31
29941;BME280;16801;53.562;10.038;2022-12-20T10:45:56;101098.09;;;10.19;88.68
29941;BME280;16801;53.562;10.038;2022-12-20T10:49:27;101108.22;;;10.26;88.97
29941;BME280;16801;53.562;10.038;2022-12-20T10:53:03;101104.19;;;10.32;88.17
29941;BME280;16801;53.562;10.038;2022-12-20T10:56:32;101089.31;;;10.37;88.16
29941;BME280;16801;53.562;10.038;2022-12-20T10:59:56;101092.41;;;10.33;88.02
29941;BME280;16801;53.562;10.038;2022-12-20T11:03:21;101084.22;;;10.34;87.95
29941;BME280;16801;53.562;10.038;2022-12-20T11:06:44;101086.78;;;10.36;87.32
29941;BME280;16801;53.562;10.038;2022-12-20T11:10:17;101087.41;;;10.28;87.71
29941;BME280;16801;53.562;10.038;2022-12-20T11:13:38;101086.50;;;10.39;87.03
29941;BME280;16801;53.562;10.038;2022-12-20T11:17:04;101085.00;;;10.46;86.80
29941;BME280;16801;53.562;10.038;2022-12-20T11:20:34;101055.75;;;10.41;86.44
29941;BME280;16801;53.562;10.038;2022-12-20T11:24:03;101056.84;;;10.39;85.60
29941;BME280;16801;53.562;10.038;2022-12-20T11:27:31;101068.50;;;10.39;86.31
29941;BME280;16801;53.562;10.038;2022-12-20T11:31:06;101063.56;;;10.44;85.84
29941;BME280;16801;53.562;10.038;2022-12-20T11:34:37;101059.06;;;10.45;86.16
29941;BME280;16801;53.562;10.038;2022-12-20T11:38:09;101038.78;;;10.51;85.34
29941;BME280;16801;53.562;10.038;2022-12-20T11:41:37;101038.25;;;10.57;84.52
29941;BME280;16801;53.562;10.038;2022-12-20T11:45:06;101032.34;;;10.63;84.01
29941;BME280;16801;53.562;10.038;2022-12-20T11:48:46;101025.84;;;10.65;83.64
29941;BME280;16801;53.562;10.038;2022-12-20T11:52:16;101030.69;;;10.71;83.05
29941;BME280;16801;53.562;10.038;2022-12-20T11:55:45;101017.56;;;10.87;81.93
29941;BME280;16801;53.562;10.038;2022-12-20T11:59:11;101019.53;;;10.85;82.40
29941;BME280;16801;53.562;10.038;2022-12-20T12:02:42;101025.66;;;10.87;81.82
29941;BME280;16801;53.562;10.038;2022-12-20T12:06:07;101019.88;;;10.92;81.72
29941;BME280;16801;53.562;10.038;2022-12-20T12:09:34;101033.66;;;10.98;80.28
29941;BME280;16801;53.562;10.038;2022-12-20T12:13:02;101022.84;;;10.89;80.95
29941;BME280;16801;53.562;10.038;2022-12-20T12:16:26;101027.97;;;10.92;81.61
29941;BME280;16801;53.562;10.038;2022-12-20T12:19:49;101017.50;;;10.98;81.01
29941;BME280;16801;53.562;10.038;2022-12-20T12:23:17;101030.66;;;10.92;81.12
29941;BME280;16801;53.562;10.038;2022-12-20T12:26:40;101018.03;;;10.92;81.34
29941;BME280;16801;53.562;10.038;2022-12-20T12:30:03;101017.94;;;11.03;80.82
29941;BME280;16801;53.562;10.038;2022-12-20T12:33:29;101019.06;;;11.01;80.18
29941;BME280;16801;53.562;10.038;2022-12-20T12:37:27;101011.69;;;11.03;80.93
29941;BME280;16801;53.562;10.038;2022-12-20T12:41:23;101010.09;;;11.00;82.03
29941;BME280;16801;53.562;10.038;2022-12-20T12:44:51;101009.94;;;10.92;84.01
29941;BME280;16801;53.562;10.038;2022-12-20T12:48:19;100992.72;;;10.84;84.65
29941;BME280;16801;53.562;10.038;2022-12-20T12:51:48;100995.50;;;10.73;85.94
29941;BME280;16801;53.562;10.038;2022-12-20T12:55:41;100992.53;;;10.76;85.48
29941;BME280;16801;53.562;10.038;2022-12-20T12:59:38;100983.94;;;10.61;86.57
29941;BME280;16801;53.562;10.038;2022-12-20T13:03:04;100975.22;;;10.48;88.47
29941;BME280;16801;53.562;10.038;2022-12-20T13:07:00;100972.91;;;10.43;88.81
29941;BME280;16801;53.562;10.038;2022-12-20T13:14:47;100969.34;;;10.43;88.10
29941;BME280;16801;53.562;10.038;2022-12-20T13:18:26;100959.00;;;10.38;88.68
29941;BME280;16801;53.562;10.038;2022-12-20T13:21:52;100954.97;;;10.33;88.13
29941;BME280;16801;53.562;10.038;2022-12-20T13:25:29;100949.16;;;10.28;89.15
29941;BME280;16801;53.562;10.038;2022-12-20T13:28:50;100953.69;;;10.27;88.62
29941;BME280;16801;53.562;10.038;2022-12-20T13:36:30;100958.50;;;10.24;89.35
29941;BME280;16801;53.562;10.038;2022-12-20T13:39:52;100960.84;;;10.17;89.33
29941;BME280;16801;53.562;10.038;2022-12-20T13:43:22;100967.94;;;10.18;89.18
29941;BME280;16801;53.562;10.038;2022-12-20T13:46:47;100982.13;;;10.20;89.01
29941;BME280;16801;53.562;10.038;2022-12-20T13:50:22;100960.00;;;10.17;88.84
29941;BME280;16801;53.562;10.038;2022-12-20T13:53:51;100967.34;;;10.15;89.32
29941;BME280;16801;53.562;10.038;2022-12-20T13:57:15;100965.91;;;10.11;90.13
29941;BME280;16801;53.562;10.038;2022-12-20T14:00:38;100978.38;;;10.12;90.28
29941;BME280;16801;53.562;10.038;2022-12-20T14:04:03;100978.25;;;10.13;89.94
29941;BME280;16801;53.562;10.038;2022-12-20T14:07:27;100982.66;;;10.14;89.69
29941;BME280;16801;53.562;10.038;2022-12-20T14:10:50;100980.59;;;10.07;90.40
29941;BME280;16801;53.562;10.038;2022-12-20T14:14:12;100990.63;;;10.05;90.98
29941;BME280;16801;53.562;10.038;2022-12-20T14:17:35;100980.97;;;10.02;91.55
29941;BME280;16801;53.562;10.038;2022-12-20T14:20:58;100985.16;;;9.95;91.94
29941;BME280;16801;53.562;10.038;2022-12-20T14:24:21;100979.31;;;9.90;92.23
29941;BME280;16801;53.562;10.038;2022-12-20T14:27:43;100978.31;;;9.91;91.64
29941;BME280;16801;53.562;10.038;2022-12-20T14:31:06;100977.50;;;9.91;92.06
29941;BME280;16801;53.562;10.038;2022-12-20T14:34:29;100975.53;;;9.93;92.55
29941;BME280;16801;53.562;10.038;2022-12-20T14:37:53;100955.09;;;9.90;93.20
29941;BME280;16801;53.562;10.038;2022-12-20T14:41:29;100941.00;;;9.87;93.69
29941;BME280;16801;53.562;10.038;2022-12-20T14:45:01;100949.38;;;9.84;94.15
29941;BME280;16801;53.562;10.038;2022-12-20T14:48:22;100949.59;;;9.81;94.38
29941;BME280;16801;53.562;10.038;2022-12-20T14:51:45;100945.94;;;9.82;94.31
29941;BME280;16801;53.562;10.038;2022-12-20T14:55:13;100953.81;;;9.74;95.49
29941;BME280;16801;53.562;10.038;2022-12-20T14:58:36;100952.25;;;9.71;94.93
29941;BME280;16801;53.562;10.038;2022-12-20T15:02:35;100958.59;;;9.70;95.13
29941;BME280;16801;53.562;10.038;2022-12-20T15:05:59;100955.16;;;9.68;95.04
29941;BME280;16801;53.562;10.038;2022-12-20T15:09:21;100969.88;;;9.64;95.29
29941;BME280;16801;53.562;10.038;2022-12-20T15:12:43;100962.94;;;9.61;95.52
29941;BME280;16801;53.562;10.038;2022-12-20T15:16:13;100961.94;;;9.62;95.73
29941;BME280;16801;53.562;10.038;2022-12-20T15:19:34;100943.09;;;9.62;95.73
29941;BME280;16801;53.562;10.038;2022-12-20T15:22:55;100958.28;;;9.63;95.22
29941;BME280;16801;53.562;10.038;2022-12-20T15:26:19;100948.47;;;9.62;95.38
29941;BME280;16801;53.562;10.038;2022-12-20T15:29:41;100944.09;;;9.61;95.40
29941;BME280;16801;53.562;10.038;2022-12-20T15:33:02;100946.66;;;9.63;95.09
29941;BME280;16801;53.562;10.038;2022-12-20T15:36:25;100938.44;;;9.64;95.28
29941;BME280;16801;53.562;10.038;2022-12-20T15:39:46;100940.88;;;9.68;95.45
29941;BME280;16801;53.562;10.038;2022-12-20T15:43:11;100943.28;;;9.71;94.87
29941;BME280;16801;53.562;10.038;2022-12-20T15:46:32;100939.03;;;9.68;95.13
29941;BME280;16801;53.562;10.038;2022-12-20T15:49:53;100947.97;;;9.68;95.25
29941;BME280;16801;53.562;10.038;2022-12-20T15:53:15;100945.75;;;9.74;94.79
29941;BME280;16801;53.562;10.038;2022-12-20T15:56:40;100941.94;;;9.76;94.58
29941;BME280;16801;53.562;10.038;2022-12-20T16:00:04;100956.84;;;9.80;94.04
29941;BME280;16801;53.562;10.038;2022-12-20T16:03:32;100948.78;;;9.80;93.88
29941;BME280;16801;53.562;10.038;2022-12-20T16:06:53;100937.72;;;9.83;93.91
29941;BME280;16801;53.562;10.038;2022-12-20T16:10:14;100934.06;;;9.84;94.20
29941;BME280;16801;53.562;10.038;2022-12-20T16:13:35;100943.31;;;9.91;94.42
29941;BME280;16801;53.562;10.038;2022-12-20T16:16:57;100945.91;;;9.93;94.02
29941;BME280;16801;53.562;10.038;2022-12-20T16:20:18;100937.41;;;9.97;93.44
29941;BME280;16801;53.562;10.038;2022-12-20T16:23:39;100931.06;;;9.98;93.38
29941;BME280;16801;53.562;10.038;2022-12-20T16:27:00;100938.13;;;9.99;93.58
29941;BME280;16801;53.562;10.038;2022-12-20T16:30:21;100933.75;;;9.98;93.50
29941;BME280;16801;53.562;10.038;2022-12-20T16:33:44;100937.16;;;10.00;93.21
29941;BME280;16801;53.562;10.038;2022-12-20T16:37:04;100932.88;;;9.98;93.24
29941;BME280;16801;53.562;10.038;2022-12-20T16:40:27;100931.91;;;9.99;93.43
29941;BME280;16801;53.562;10.038;2022-12-20T16:43:49;100938.78;;;9.92;93.66
29941;BME280;16801;53.562;10.038;2022-12-20T16:47:10;100940.03;;;9.88;94.01
29941;BME280;16801;53.562;10.038;2022-12-20T16:50:32;100934.78;;;9.86;94.15
29941;BME280;16801;53.562;10.038;2022-12-20T16:53:56;100945.66;;;9.85;93.66
29941;BME280;16801;53.562;10.038;2022-12-20T16:57:18;100936.03;;;9.82;93.48
29941;BME280;16801;53.562;10.038;2022-12-20T17:00:40;100930.66;;;9.82;93.96
29941;BME280;16801;53.562;10.038;2022-12-20T17:04:02;100942.00;;;9.86;94.18
29941;BME280;16801;53.562;10.038;2022-12-20T17:07:25;100928.56;;;9.86;94.02
29941;BME280;16801;53.562;10.038;2022-12-20T17:10:45;100919.22;;;9.90;93.86
29941;BME280;16801;53.562;10.038;2022-12-20T17:14:06;100926.19;;;9.92;94.08
29941;BME280;16801;53.562;10.038;2022-12-20T17:17:27;100918.88;;;10.04;94.26
29941;BME280;16801;53.562;10.038;2022-12-20T17:20:48;100931.97;;;10.08;93.75
29941;BME280;16801;53.562;10.038;2022-12-20T17:24:16;100922.31;;;10.06;93.89
29941;BME280;16801;53.562;10.038;2022-12-20T17:27:37;100923.75;;;10.10;93.83
29941;BME280;16801;53.562;10.038;2022-12-20T17:30:58;100924.25;;;10.15;94.17
29941;BME280;16801;53.562;10.038;2022-12-20T17:34:21;100914.19;;;10.17;94.28
29941;BME280;16801;53.562;10.038;2022-12-20T17:37:42;100914.78;;;10.20;93.68
29941;BME280;16801;53.562;10.038;2022-12-20T17:41:04;100925.53;;;10.20;93.63
29941;BME280;16801;53.562;10.038;2022-12-20T17:44:26;100913.66;;;10.23;93.72
29941;BME280;16801;53.562;10.038;2022-12-20T17:47:47;100915.81;;;10.29;93.82
29941;BME280;16801;53.562;10.038;2022-12-20T17:51:14;100918.50;;;10.29;93.90
29941;BME280;16801;53.562;10.038;2022-12-20T17:54:35;100915.56;;;10.32;93.84
29941;BME280;16801;53.562;10.038;2022-12-20T17:57:57;100915.81;;;10.29;93.55